sensor_id;sensor_type;location;lat;lon;timestamp;pressure;altitude;pressure_sealevel;temperature;humidity
43711;BME280;29309;42.682;23.372;2022-12-07T00:02:15;95185.88;;;5.39;88.10
43711;BME280;29309;42.682;23.372;2022-12-07T00:04:41;95183.00;;;5.37;88.03
43711;BME280;29309;42.682;23.372;2022-12-07T00:07:06;95194.13;;;5.39;88.26
43711;BME280;29309;42.682;23.372;2022-12-07T00:09:32;95181.84;;;5.40;88.50
43711;BME280;29309;42.682;23.372;2022-12-07T00:11:57;95176.59;;;5.44;88.47
43711;BME280;29309;42.682;23.372;2022-12-07T00:14:22;95180.09;;;5.45;88.54
43711;BME280;29309;42.682;23.372;2022-12-07T00:16:50;95173.72;;;5.42;88.32
43711;BME280;29309;42.682;23.372;2022-12-07T00:19:16;95180.66;;;5.43;88.24
43711;BME280;29309;42.682;23.372;2022-12-07T00:21:41;95176.03;;;5.46;87.71
43711;BME280;29309;42.682;23.372;2022-12-07T00:24:07;95178.06;;;5.45;87.97
43711;BME280;29309;42.682;23.372;2022-12-07T00:26:36;95176.59;;;5.44;88.07
43711;BME280;29309;42.682;23.372;2022-12-07T00:29:04;95166.16;;;5.43;87.83
43711;BME280;29309;42.682;23.372;2022-12-07T00:31:32;95179.81;;;5.41;88.17
43711;BME280;29309;42.682;23.372;2022-12-07T00:33:59;95179.06;;;5.40;88.33
43711;BME280;29309;42.682;23.372;2022-12-07T00:36:25;95181.53;;;5.46;88.16
43711;BME280;29309;42.682;23.372;2022-12-07T00:38:51;95188.78;;;5.41;88.32
43711;BME280;29309;42.682;23.372;2022-12-07T00:41:18;95184.88;;;5.44;88.12
43711;BME280;29309;42.682;23.372;2022-12-07T00:43:46;95180.09;;;5.45;88.19
43711;BME280;29309;42.682;23.372;2022-12-07T00:46:13;95178.91;;;5.48;88.29
43711;BME280;29309;42.682;23.372;2022-12-07T00:48:39;95182.50;;;5.51;88.04
43711;BME280;29309;42.682;23.372;2022-12-07T00:51:05;95179.03;;;5.50;87.95
43711;BME280;29309;42.682;23.372;2022-12-07T00:53:31;95165.41;;;5.52;87.76
43711;BME280;29309;42.682;23.372;2022-12-07T00:56:07;95168.44;;;5.56;88.05
43711;BME280;29309;42.682;23.372;2022-12-07T00:58:33;95166.44;;;5.57;87.86
43711;BME280;29309;42.682;23.372;2022-12-07T01:01:04;95173.34;;;5.58;88.05
43711;BME280;29309;42.682;23.372;2022-12-07T01:03:29;95170.75;;;5.60;88.09
43711;BME280;29309;42.682;23.372;2022-12-07T01:05:56;95161.03;;;5.59;87.65
43711;BME280;29309;42.682;23.372;2022-12-07T01:08:22;95168.00;;;5.60;88.11
43711;BME280;29309;42.682;23.372;2022-12-07T01:10:48;95168.00;;;5.60;87.88
43711;BME280;29309;42.682;23.372;2022-12-07T01:13:15;95167.28;;;5.59;87.79
43711;BME280;29309;42.682;23.372;2022-12-07T01:15:44;95166.81;;;5.63;88.09
43711;BME280;29309;42.682;23.372;2022-12-07T01:18:10;95163.34;;;5.62;88.23
43711;BME280;29309;42.682;23.372;2022-12-07T01:20:36;95162.03;;;5.63;88.17
43711;BME280;29309;42.682;23.372;2022-12-07T01:23:02;95164.91;;;5.65;88.30
43711;BME280;29309;42.682;23.372;2022-12-07T01:25:27;95164.19;;;5.65;88.11
43711;BME280;29309;42.682;23.372;2022-12-07T01:27:53;95158.69;;;5.65;87.94
43711;BME280;29309;42.682;23.372;2022-12-07T01:30:18;95151.16;;;5.65;87.76
43711;BME280;29309;42.682;23.372;2022-12-07T01:32:43;95152.03;;;5.68;87.84
43711;BME280;29309;42.682;23.372;2022-12-07T01:35:09;95150.56;;;5.67;87.70
43711;BME280;29309;42.682;23.372;2022-12-07T01:37:38;95156.34;;;5.71;87.83
43711;BME280;29309;42.682;23.372;2022-12-07T01:40:06;95145.91;;;5.69;87.56
43711;BME280;29309;42.682;23.372;2022-12-07T01:42:32;95159.13;;;5.71;87.53
43711;BME280;29309;42.682;23.372;2022-12-07T01:48:01;95157.53;;;5.68;87.15
43711;BME280;29309;42.682;23.372;2022-12-07T01:50:28;95151.16;;;5.65;87.46
43711;BME280;29309;42.682;23.372;2022-12-07T01:52:56;95149.13;;;5.66;87.32
43711;BME280;29309;42.682;23.372;2022-12-07T01:55:23;95142.16;;;5.65;87.65
43711;BME280;29309;42.682;23.372;2022-12-07T01:57:51;95141.31;;;5.62;87.28
43711;BME280;29309;42.682;23.372;2022-12-07T02:00:18;95148.28;;;5.63;87.78
43711;BME280;29309;42.682;23.372;2022-12-07T02:02:55;95134.50;;;5.63;87.97
43711;BME280;29309;42.682;23.372;2022-12-07T02:05:24;95137.84;;;5.62;87.75
43711;BME280;29309;42.682;23.372;2022-12-07T02:07:51;95131.31;;;5.57;87.80
43711;BME280;29309;42.682;23.372;2022-12-07T02:10:20;95132.66;;;5.56;87.58
43711;BME280;29309;42.682;23.372;2022-12-07T02:12:48;95130.47;;;5.55;87.44
43711;BME280;29309;42.682;23.372;2022-12-07T02:15:15;95136.25;;;5.59;87.59
43711;BME280;29309;42.682;23.372;2022-12-07T02:18:05;95138.44;;;5.60;87.55
43711;BME280;29309;42.682;23.372;2022-12-07T02:31:30;95124.41;;;5.56;88.24
43711;BME280;29309;42.682;23.372;2022-12-07T02:34:26;95128.31;;;5.53;87.93
43711;BME280;29309;42.682;23.372;2022-12-07T02:37:00;95115.41;;;5.56;87.88
43711;BME280;29309;42.682;23.372;2022-12-07T02:39:33;95115.25;;;5.54;87.87
43711;BME280;29309;42.682;23.372;2022-12-07T02:42:33;95120.06;;;5.53;87.39
43711;BME280;29309;42.682;23.372;2022-12-07T02:45:01;95117.88;;;5.52;88.18
43711;BME280;29309;42.682;23.372;2022-12-07T02:47:29;95127.72;;;5.55;88.08
43711;BME280;29309;42.682;23.372;2022-12-07T02:49:56;95127.00;;;5.54;88.51
43711;BME280;29309;42.682;23.372;2022-12-07T02:52:22;95120.75;;;5.54;88.15
43711;BME280;29309;42.682;23.372;2022-12-07T02:54:47;95118.00;;;5.54;88.33
43711;BME280;29309;42.682;23.372;2022-12-07T02:57:31;95112.50;;;5.54;88.17
43711;BME280;29309;42.682;23.372;2022-12-07T03:00:13;95117.88;;;5.52;87.90
43711;BME280;29309;42.682;23.372;2022-12-07T03:02:54;95107.91;;;5.46;88.05
43711;BME280;29309;42.682;23.372;2022-12-07T03:11:01;95105.31;;;5.39;88.35
43711;BME280;29309;42.682;23.372;2022-12-07T03:16:05;95095.22;;;5.32;88.11
43711;BME280;29309;42.682;23.372;2022-12-07T03:18:46;95103.34;;;5.30;88.61
43711;BME280;29309;42.682;23.372;2022-12-07T03:21:17;95098.41;;;5.28;88.86
43711;BME280;29309;42.682;23.372;2022-12-07T03:23:48;95091.50;;;5.27;88.84
43711;BME280;29309;42.682;23.372;2022-12-07T03:26:16;95095.53;;;5.26;88.49
43711;BME280;29309;42.682;23.372;2022-12-07T03:28:49;95092.06;;;5.26;88.77
43711;BME280;29309;42.682;23.372;2022-12-07T03:31:22;95097.56;;;5.26;88.50
43711;BME280;29309;42.682;23.372;2022-12-07T03:33:55;95099.47;;;5.23;88.65
43711;BME280;29309;42.682;23.372;2022-12-07T03:39:00;95101.81;;;5.17;88.93
43711;BME280;29309;42.682;23.372;2022-12-07T03:41:30;95106.72;;;5.19;88.80
43711;BME280;29309;42.682;23.372;2022-12-07T03:43:57;95107.44;;;5.19;89.18
43711;BME280;29309;42.682;23.372;2022-12-07T03:49:11;95098.63;;;5.21;88.68
43711;BME280;29309;42.682;23.372;2022-12-07T03:55:05;95101.81;;;5.17;89.25
43711;BME280;29309;42.682;23.372;2022-12-07T03:57:33;95099.78;;;5.18;89.25
43711;BME280;29309;42.682;23.372;2022-12-07T03:59:59;95093.41;;;5.15;89.18
43711;BME280;29309;42.682;23.372;2022-12-07T04:02:27;95085.72;;;5.14;88.99
43711;BME280;29309;42.682;23.372;2022-12-07T04:04:53;95083.59;;;5.12;89.38
43711;BME280;29309;42.682;23.372;2022-12-07T04:07:18;95095.88;;;5.11;89.10
43711;BME280;29309;42.682;23.372;2022-12-07T04:09:44;95084.88;;;5.11;89.06
43711;BME280;29309;42.682;23.372;2022-12-07T04:12:10;95084.31;;;5.13;89.28
43711;BME280;29309;42.682;23.372;2022-12-07T04:14:35;95089.09;;;5.12;88.91
43711;BME280;29309;42.682;23.372;2022-12-07T04:17:01;95091.84;;;5.12;89.36
43711;BME280;29309;42.682;23.372;2022-12-07T04:19:29;95082.13;;;5.11;89.30
43711;BME280;29309;42.682;23.372;2022-12-07T04:21:56;95073.88;;;5.11;89.35
43711;BME280;29309;42.682;23.372;2022-12-07T04:24:22;95084.59;;;5.07;89.23
43711;BME280;29309;42.682;23.372;2022-12-07T04:26:47;95088.09;;;5.08;89.74
43711;BME280;29309;42.682;23.372;2022-12-07T04:29:14;95092.00;;;5.05;89.87
43711;BME280;29309;42.682;23.372;2022-12-07T04:31:40;95094.47;;;5.01;89.81
43711;BME280;29309;42.682;23.372;2022-12-07T04:34:06;95095.94;;;5.02;90.15
43711;BME280;29309;42.682;23.372;2022-12-07T04:36:32;95097.38;;;5.03;90.31
43711;BME280;29309;42.682;23.372;2022-12-07T04:38:58;95089.69;;;5.01;90.02
43711;BME280;29309;42.682;23.372;2022-12-07T04:41:25;95087.53;;;5.00;90.42
43711;BME280;29309;42.682;23.372;2022-12-07T04:43:59;95088.97;;;5.01;90.01
43711;BME280;29309;42.682;23.372;2022-12-07T04:46:26;95096.38;;;4.98;90.16
43711;BME280;29309;42.682;23.372;2022-12-07T04:48:53;95100.44;;;4.97;90.43
43711;BME280;29309;42.682;23.372;2022-12-07T04:51:25;95098.97;;;4.96;90.24
43711;BME280;29309;42.682;23.372;2022-12-07T04:53:51;95097.41;;;4.93;90.63
43711;BME280;29309;42.682;23.372;2022-12-07T04:56:17;95106.81;;;4.90;90.46
43711;BME280;29309;42.682;23.372;2022-12-07T04:58:44;95099.88;;;4.89;90.16
43711;BME280;29309;42.682;23.372;2022-12-07T05:01:10;95099.13;;;4.88;90.37
43711;BME280;29309;42.682;23.372;2022-12-07T05:03:36;95100.91;;;4.84;90.43
43711;BME280;29309;42.682;23.372;2022-12-07T05:06:02;95098.00;;;4.82;90.77
43711;BME280;29309;42.682;23.372;2022-12-07T05:08:27;95101.91;;;4.79;90.58
43711;BME280;29309;42.682;23.372;2022-12-07T05:10:53;95100.47;;;4.78;90.70
43711;BME280;29309;42.682;23.372;2022-12-07T05:13:18;95104.66;;;4.79;90.42
43711;BME280;29309;42.682;23.372;2022-12-07T05:15:44;95110.03;;;4.77;90.68
43711;BME280;29309;42.682;23.372;2022-12-07T05:18:10;95112.63;;;4.75;90.50
43711;BME280;29309;42.682;23.372;2022-12-07T05:20:38;95098.75;;;4.73;90.51
43711;BME280;29309;42.682;23.372;2022-12-07T05:23:04;95098.47;;;4.69;90.71
43711;BME280;29309;42.682;23.372;2022-12-07T05:25:29;95099.31;;;4.71;90.84
43711;BME280;29309;42.682;23.372;2022-12-07T05:27:55;95099.19;;;4.69;90.84
43711;BME280;29309;42.682;23.372;2022-12-07T05:30:22;95093.53;;;4.67;90.79
43711;BME280;29309;42.682;23.372;2022-12-07T05:32:48;95104.69;;;4.69;91.08
43711;BME280;29309;42.682;23.372;2022-12-07T05:35:13;95095.44;;;4.65;91.01
43711;BME280;29309;42.682;23.372;2022-12-07T05:37:39;95095.31;;;4.63;91.35
43711;BME280;29309;42.682;23.372;2022-12-07T05:40:05;95103.69;;;4.65;91.37
43711;BME280;29309;42.682;23.372;2022-12-07T05:42:31;95101.50;;;4.63;91.48
43711;BME280;29309;42.682;23.372;2022-12-07T05:44:56;95106.44;;;4.65;91.46
43711;BME280;29309;42.682;23.372;2022-12-07T05:47:22;95107.16;;;4.65;91.41
43711;BME280;29309;42.682;23.372;2022-12-07T05:49:48;95092.56;;;4.63;91.58
43711;BME280;29309;42.682;23.372;2022-12-07T05:52:13;95091.09;;;4.62;91.62
43711;BME280;29309;42.682;23.372;2022-12-07T05:54:38;95095.44;;;4.65;91.78
43711;BME280;29309;42.682;23.372;2022-12-07T05:57:04;95098.75;;;4.63;91.79
43711;BME280;29309;42.682;23.372;2022-12-07T05:59:29;95088.34;;;4.62;91.87
43711;BME280;29309;42.682;23.372;2022-12-07T06:02:04;95086.91;;;4.61;92.32
43711;BME280;29309;42.682;23.372;2022-12-07T06:04:36;95087.75;;;4.63;92.01
43711;BME280;29309;42.682;23.372;2022-12-07T06:07:02;95089.81;;;4.63;91.96
43711;BME280;29309;42.682;23.372;2022-12-07T06:09:28;95095.88;;;4.61;92.06
43711;BME280;29309;42.682;23.372;2022-12-07T06:11:55;95091.97;;;4.64;92.44
43711;BME280;29309;42.682;23.372;2022-12-07T06:14:39;95088.50;;;4.64;92.75
43711;BME280;29309;42.682;23.372;2022-12-07T06:17:04;95097.03;;;4.68;92.59
43711;BME280;29309;42.682;23.372;2022-12-07T06:19:30;95094.28;;;4.68;92.84
43711;BME280;29309;42.682;23.372;2022-12-07T06:21:56;95093.09;;;4.71;92.45
43711;BME280;29309;42.682;23.372;2022-12-07T06:24:22;95096.59;;;4.71;92.72
43711;BME280;29309;42.682;23.372;2022-12-07T06:26:47;95098.88;;;4.75;92.55
43711;BME280;29309;42.682;23.372;2022-12-07T06:29:13;95102.66;;;4.79;92.82
43711;BME280;29309;42.682;23.372;2022-12-07T06:31:39;95102.94;;;4.83;92.36
43711;BME280;29309;42.682;23.372;2022-12-07T06:34:08;95099.59;;;4.85;92.61
43711;BME280;29309;42.682;23.372;2022-12-07T06:36:34;95099.13;;;4.88;92.40
43711;BME280;29309;42.682;23.372;2022-12-07T06:39:00;95106.53;;;4.95;92.31
43711;BME280;29309;42.682;23.372;2022-12-07T06:41:25;95101.88;;;4.98;92.05
43711;BME280;29309;42.682;23.372;2022-12-07T06:43:51;95101.00;;;5.05;92.20
43711;BME280;29309;42.682;23.372;2022-12-07T06:46:17;95110.09;;;5.08;91.87
43711;BME280;29309;42.682;23.372;2022-12-07T06:48:43;95119.19;;;5.10;91.83
43711;BME280;29309;42.682;23.372;2022-12-07T06:51:09;95115.16;;;5.11;91.76
43711;BME280;29309;42.682;23.372;2022-12-07T06:53:35;95111.38;;;5.16;91.80
43711;BME280;29309;42.682;23.372;2022-12-07T06:56:01;95105.44;;;5.20;92.01
43711;BME280;29309;42.682;23.372;2022-12-07T06:58:26;95110.75;;;5.27;91.69
43711;BME280;29309;42.682;23.372;2022-12-07T07:00:53;95105.53;;;5.31;91.64
43711;BME280;29309;42.682;23.372;2022-12-07T07:03:18;95112.72;;;5.36;91.55
43711;BME280;29309;42.682;23.372;2022-12-07T07:05:44;95111.56;;;5.39;90.96
43711;BME280;29309;42.682;23.372;2022-12-07T07:08:11;95110.84;;;5.39;90.87
43711;BME280;29309;42.682;23.372;2022-12-07T07:10:36;95115.31;;;5.44;90.88
43711;BME280;29309;42.682;23.372;2022-12-07T07:13:02;95104.00;;;5.50;90.87
43711;BME280;29309;42.682;23.372;2022-12-07T07:15:28;95111.34;;;5.57;90.54
43711;BME280;29309;42.682;23.372;2022-12-07T07:17:53;95112.31;;;5.61;90.35
43711;BME280;29309;42.682;23.372;2022-12-07T07:20:19;95112.88;;;5.69;90.07
43711;BME280;29309;42.682;23.372;2022-12-07T07:22:44;95123.59;;;5.75;89.50
43711;BME280;29309;42.682;23.372;2022-12-07T07:25:10;95119.75;;;5.80;89.69
43711;BME280;29309;42.682;23.372;2022-12-07T07:27:35;95122.78;;;5.84;89.48
43711;BME280;29309;42.682;23.372;2022-12-07T07:30:01;95121.63;;;5.87;89.00
43711;BME280;29309;42.682;23.372;2022-12-07T07:32:26;95118.69;;;5.94;88.10
43711;BME280;29309;42.682;23.372;2022-12-07T07:34:52;95123.63;;;5.96;87.06
43711;BME280;29309;42.682;23.372;2022-12-07T07:37:17;95123.47;;;5.94;87.45
43711;BME280;29309;42.682;23.372;2022-12-07T07:39:42;95129.53;;;6.02;87.12
43711;BME280;29309;42.682;23.372;2022-12-07T07:42:08;95124.41;;;6.08;86.52
43711;BME280;29309;42.682;23.372;2022-12-07T07:44:34;95134.38;;;6.13;86.18
43711;BME280;29309;42.682;23.372;2022-12-07T07:47:00;95129.13;;;6.17;86.28
43711;BME280;29309;42.682;23.372;2022-12-07T07:49:26;95127.13;;;6.29;86.25
43711;BME280;29309;42.682;23.372;2022-12-07T07:51:51;95120.25;;;6.40;86.02
43711;BME280;29309;42.682;23.372;2022-12-07T07:54:17;95124.63;;;6.55;85.34
43711;BME280;29309;42.682;23.372;2022-12-07T07:56:42;95119.50;;;6.61;84.85
43711;BME280;29309;42.682;23.372;2022-12-07T07:59:08;95121.94;;;6.78;83.88
43711;BME280;29309;42.682;23.372;2022-12-07T08:01:33;95125.34;;;6.88;83.26
43711;BME280;29309;42.682;23.372;2022-12-07T08:03:59;95116.25;;;6.97;82.61
43711;BME280;29309;42.682;23.372;2022-12-07T08:06:24;95124.88;;;7.03;82.69
43711;BME280;29309;42.682;23.372;2022-12-07T08:08:50;95116.28;;;7.09;82.08
43711;BME280;29309;42.682;23.372;2022-12-07T08:11:15;95121.31;;;7.12;82.10
43711;BME280;29309;42.682;23.372;2022-12-07T08:13:41;95125.50;;;7.13;81.83
43711;BME280;29309;42.682;23.372;2022-12-07T08:16:08;95115.44;;;7.18;80.83
43711;BME280;29309;42.682;23.372;2022-12-07T08:18:39;95115.94;;;7.26;81.24
43711;BME280;29309;42.682;23.372;2022-12-07T08:21:05;95118.47;;;7.33;80.67
43711;BME280;29309;42.682;23.372;2022-12-07T08:23:31;95121.22;;;7.33;79.96
43711;BME280;29309;42.682;23.372;2022-12-07T08:26:01;95113.06;;;7.35;80.50
43711;BME280;29309;42.682;23.372;2022-12-07T08:28:28;95124.47;;;7.41;80.50
43711;BME280;29309;42.682;23.372;2022-12-07T08:30:59;95121.47;;;7.49;79.15
43711;BME280;29309;42.682;23.372;2022-12-07T08:33:24;95113.66;;;7.57;78.62
43711;BME280;29309;42.682;23.372;2022-12-07T08:35:50;95118.69;;;7.61;78.37
43711;BME280;29309;42.682;23.372;2022-12-07T08:38:15;95118.59;;;7.59;78.04
43711;BME280;29309;42.682;23.372;2022-12-07T08:40:41;95121.84;;;7.55;78.33
43711;BME280;29309;42.682;23.372;2022-12-07T08:43:06;95120.38;;;7.54;78.22
43711;BME280;29309;42.682;23.372;2022-12-07T08:45:31;95109.81;;;7.51;78.80
43711;BME280;29309;42.682;23.372;2022-12-07T08:48:06;95108.25;;;7.48;79.53
43711;BME280;29309;42.682;23.372;2022-12-07T08:50:34;95112.00;;;7.52;79.74
43711;BME280;29309;42.682;23.372;2022-12-07T08:53:01;95106.00;;;7.56;79.40
43711;BME280;29309;42.682;23.372;2022-12-07T08:55:28;95103.34;;;7.58;79.41
43711;BME280;29309;42.682;23.372;2022-12-07T08:57:54;95099.50;;;7.63;78.58
43711;BME280;29309;42.682;23.372;2022-12-07T09:00:20;95092.75;;;7.66;78.22
43711;BME280;29309;42.682;23.372;2022-12-07T09:02:46;95094.22;;;7.67;77.89
43711;BME280;29309;42.682;23.372;2022-12-07T09:05:12;95080.84;;;7.63;77.78
43711;BME280;29309;42.682;23.372;2022-12-07T09:07:41;95087.97;;;7.66;78.21
43711;BME280;29309;42.682;23.372;2022-12-07T09:10:07;95090.34;;;7.72;78.34
43711;BME280;29309;42.682;23.372;2022-12-07T09:12:33;95082.31;;;7.76;78.50
43711;BME280;29309;42.682;23.372;2022-12-07T09:14:58;95084.09;;;7.83;77.69
43711;BME280;29309;42.682;23.372;2022-12-07T09:17:26;95078.66;;;7.85;76.82
43711;BME280;29309;42.682;23.372;2022-12-07T09:19:51;95071.59;;;7.82;76.54
43711;BME280;29309;42.682;23.372;2022-12-07T09:22:17;95065.47;;;7.72;76.23
43711;BME280;29309;42.682;23.372;2022-12-07T09:24:42;95068.50;;;7.64;76.90
43711;BME280;29309;42.682;23.372;2022-12-07T09:27:09;95065.00;;;7.64;77.49
43711;BME280;29309;42.682;23.372;2022-12-07T09:29:35;95072.69;;;7.65;77.01
43711;BME280;29309;42.682;23.372;2022-12-07T09:32:00;95067.53;;;7.60;77.54
43711;BME280;29309;42.682;23.372;2022-12-07T09:34:25;95078.81;;;7.64;77.94
43711;BME280;29309;42.682;23.372;2022-12-07T09:36:51;95061.06;;;7.67;78.28
43711;BME280;29309;42.682;23.372;2022-12-07T09:39:17;95050.72;;;7.67;78.50
43711;BME280;29309;42.682;23.372;2022-12-07T09:41:44;95039.31;;;7.73;78.21
43711;BME280;29309;42.682;23.372;2022-12-07T09:44:12;95043.72;;;7.78;78.08
43711;BME280;29309;42.682;23.372;2022-12-07T09:46:40;95044.31;;;7.88;77.87
43711;BME280;29309;42.682;23.372;2022-12-07T09:49:21;95042.97;;;7.89;77.86
43711;BME280;29309;42.682;23.372;2022-12-07T09:51:48;95038.53;;;7.96;77.66
43711;BME280;29309;42.682;23.372;2022-12-07T09:54:24;95042.22;;;8.00;77.82
43711;BME280;29309;42.682;23.372;2022-12-07T09:56:50;95042.47;;;8.04;77.06
43711;BME280;29309;42.682;23.372;2022-12-07T09:59:17;95039.81;;;8.06;76.70
43711;BME280;29309;42.682;23.372;2022-12-07T10:01:45;95035.34;;;8.13;76.32
43711;BME280;29309;42.682;23.372;2022-12-07T10:06:41;95029.19;;;8.14;77.00
43711;BME280;29309;42.682;23.372;2022-12-07T10:09:18;95028.59;;;8.16;77.10
43711;BME280;29309;42.682;23.372;2022-12-07T10:12:05;95021.59;;;8.26;76.00
43711;BME280;29309;42.682;23.372;2022-12-07T10:14:33;95019.53;;;8.27;76.16
43711;BME280;29309;42.682;23.372;2022-12-07T10:17:00;95020.38;;;8.29;75.00
43711;BME280;29309;42.682;23.372;2022-12-07T10:19:31;95007.16;;;8.28;75.15
43711;BME280;29309;42.682;23.372;2022-12-07T10:22:15;95004.03;;;8.33;75.00
43711;BME280;29309;42.682;23.372;2022-12-07T10:24:43;95010.88;;;8.32;74.59
43711;BME280;29309;42.682;23.372;2022-12-07T10:27:26;95002.81;;;8.25;75.98
43711;BME280;29309;42.682;23.372;2022-12-07T10:29:54;95001.03;;;8.29;75.35
43711;BME280;29309;42.682;23.372;2022-12-07T10:32:40;95000.16;;;8.38;75.05
43711;BME280;29309;42.682;23.372;2022-12-07T10:35:23;94986.16;;;8.48;74.69
43711;BME280;29309;42.682;23.372;2022-12-07T10:37:50;94988.84;;;8.60;74.16
43711;BME280;29309;42.682;23.372;2022-12-07T10:40:29;94983.53;;;8.64;73.30
43711;BME280;29309;42.682;23.372;2022-12-07T10:43:13;94981.28;;;8.60;73.07
43711;BME280;29309;42.682;23.372;2022-12-07T11:00:10;94967.94;;;8.57;73.76
43711;BME280;29309;42.682;23.372;2022-12-07T11:03:05;94955.75;;;8.62;73.87
43711;BME280;29309;42.682;23.372;2022-12-07T11:05:52;94953.50;;;8.72;73.28
43711;BME280;29309;42.682;23.372;2022-12-07T11:11:31;94944.41;;;8.83;72.52
43711;BME280;29309;42.682;23.372;2022-12-07T11:16:56;94945.84;;;8.84;72.80
43711;BME280;29309;42.682;23.372;2022-12-07T11:19:46;94946.28;;;8.92;72.86
43711;BME280;29309;42.682;23.372;2022-12-07T11:33:53;94917.97;;;9.07;71.96
43711;BME280;29309;42.682;23.372;2022-12-07T11:36:38;94902.78;;;9.08;72.64
43711;BME280;29309;42.682;23.372;2022-12-07T11:39:33;94908.63;;;9.28;71.85
43711;BME280;29309;42.682;23.372;2022-12-07T11:42:11;94903.88;;;9.44;70.80
43711;BME280;29309;42.682;23.372;2022-12-07T11:47:30;94909.50;;;9.60;69.75
43711;BME280;29309;42.682;23.372;2022-12-07T11:54:57;94905.09;;;9.41;69.99
43711;BME280;29309;42.682;23.372;2022-12-07T11:57:37;94901.72;;;9.43;70.50
43711;BME280;29309;42.682;23.372;2022-12-07T12:00:17;94899.06;;;9.74;69.67
43711;BME280;29309;42.682;23.372;2022-12-07T12:05:25;94881.91;;;10.36;66.81
43711;BME280;29309;42.682;23.372;2022-12-07T12:08:18;94889.78;;;10.73;65.52
43711;BME280;29309;42.682;23.372;2022-12-07T12:10:56;94884.41;;;10.77;64.66
43711;BME280;29309;42.682;23.372;2022-12-07T12:16:51;94881.63;;;10.61;65.00
43711;BME280;29309;42.682;23.372;2022-12-07T12:20:00;94867.59;;;10.42;65.48
43711;BME280;29309;42.682;23.372;2022-12-07T12:22:38;94871.22;;;10.15;65.87
43711;BME280;29309;42.682;23.372;2022-12-07T12:25:07;94868.50;;;10.01;66.36
43711;BME280;29309;42.682;23.372;2022-12-07T12:27:40;94863.91;;;9.92;67.12
43711;BME280;29309;42.682;23.372;2022-12-07T12:32:51;94867.25;;;9.75;67.92
43711;BME280;29309;42.682;23.372;2022-12-07T12:35:33;94857.13;;;9.66;68.24
43711;BME280;29309;42.682;23.372;2022-12-07T12:38:24;94854.91;;;9.49;68.97
43711;BME280;29309;42.682;23.372;2022-12-07T12:40:50;94847.44;;;9.37;69.07
43711;BME280;29309;42.682;23.372;2022-12-07T12:43:41;94843.78;;;9.33;69.75
43711;BME280;29309;42.682;23.372;2022-12-07T12:51:43;94846.56;;;9.19;70.78
43711;BME280;29309;42.682;23.372;2022-12-07T12:56:55;94836.00;;;9.16;71.35
43711;BME280;29309;42.682;23.372;2022-12-07T12:59:29;94837.88;;;9.11;71.50
43711;BME280;29309;42.682;23.372;2022-12-07T13:05:02;94839.41;;;9.14;72.09
43711;BME280;29309;42.682;23.372;2022-12-07T13:15:52;94844.59;;;9.35;71.89
43711;BME280;29309;42.682;23.372;2022-12-07T13:25:59;94836.88;;;9.48;72.00
43711;BME280;29309;42.682;23.372;2022-12-07T13:28:33;94834.91;;;9.50;71.70
43711;BME280;29309;42.682;23.372;2022-12-07T13:33:49;94832.22;;;9.52;71.80
43711;BME280;29309;42.682;23.372;2022-12-07T13:36:20;94826.88;;;9.56;71.84
43711;BME280;29309;42.682;23.372;2022-12-07T13:41:59;94827.06;;;9.60;71.76
43711;BME280;29309;42.682;23.372;2022-12-07T13:44:27;94827.06;;;9.60;71.72
43711;BME280;29309;42.682;23.372;2022-12-07T13:47:17;94829.41;;;9.66;71.62
43711;BME280;29309;42.682;23.372;2022-12-07T13:49:53;94818.84;;;9.62;71.21
43711;BME280;29309;42.682;23.372;2022-12-07T13:52:23;94821.84;;;9.53;71.26
43711;BME280;29309;42.682;23.372;2022-12-07T13:55:13;94816.22;;;9.51;71.70
43711;BME280;29309;42.682;23.372;2022-12-07T13:57:39;94815.59;;;9.52;71.60
43711;BME280;29309;42.682;23.372;2022-12-07T14:00:15;94814.59;;;9.46;71.99
43711;BME280;29309;42.682;23.372;2022-12-07T14:03:02;94814.50;;;9.44;71.80
43711;BME280;29309;42.682;23.372;2022-12-07T14:05:31;94815.94;;;9.45;71.85
43711;BME280;29309;42.682;23.372;2022-12-07T14:08:01;94818.81;;;9.47;71.87
43711;BME280;29309;42.682;23.372;2022-12-07T14:10:35;94821.38;;;9.43;72.19
43711;BME280;29309;42.682;23.372;2022-12-07T14:13:03;94823.44;;;9.42;72.52
43711;BME280;29309;42.682;23.372;2022-12-07T14:15:31;94826.94;;;9.43;72.50
43711;BME280;29309;42.682;23.372;2022-12-07T14:17:59;94828.25;;;9.42;72.82
43711;BME280;29309;42.682;23.372;2022-12-07T14:22:58;94826.81;;;9.40;72.84
43711;BME280;29309;42.682;23.372;2022-12-07T14:25:25;94840.66;;;9.40;73.10
43711;BME280;29309;42.682;23.372;2022-12-07T14:28:01;94841.31;;;9.39;72.93
43711;BME280;29309;42.682;23.372;2022-12-07T14:30:27;94830.81;;;9.37;73.25
43711;BME280;29309;42.682;23.372;2022-12-07T14:32:58;94826.34;;;9.30;73.17
43711;BME280;29309;42.682;23.372;2022-12-07T14:35:25;94833.56;;;9.22;73.54
43711;BME280;29309;42.682;23.372;2022-12-07T14:37:51;94824.59;;;9.23;73.48
43711;BME280;29309;42.682;23.372;2022-12-07T14:40:25;94820.44;;;9.22;73.47
43711;BME280;29309;42.682;23.372;2022-12-07T14:43:02;94834.06;;;9.18;73.47
43711;BME280;29309;42.682;23.372;2022-12-07T14:45:28;94820.75;;;9.15;74.15
43711;BME280;29309;42.682;23.372;2022-12-07T14:47:54;94830.28;;;9.12;74.00
43711;BME280;29309;42.682;23.372;2022-12-07T14:50:20;94826.69;;;9.09;74.02
43711;BME280;29309;42.682;23.372;2022-12-07T14:52:49;94827.22;;;9.06;74.13
43711;BME280;29309;42.682;23.372;2022-12-07T14:55:25;94825.06;;;9.04;74.22
43711;BME280;29309;42.682;23.372;2022-12-07T14:57:51;94829.78;;;9.02;74.62
43711;BME280;29309;42.682;23.372;2022-12-07T15:00:17;94831.00;;;8.99;74.59
43711;BME280;29309;42.682;23.372;2022-12-07T15:02:44;94832.06;;;8.92;74.53
43711;BME280;29309;42.682;23.372;2022-12-07T15:05:10;94843.72;;;8.90;75.01
43711;BME280;29309;42.682;23.372;2022-12-07T15:07:36;94844.88;;;8.85;75.03
43711;BME280;29309;42.682;23.372;2022-12-07T15:10:02;94839.94;;;8.83;75.18